Epic Balta — 9VED8 — position and weather

sailwx.info

Track history (hours):
 
Tides and Currents Weather Stations Pressure Air Temp Water Temp Dewpoint Dewpoint Depression Visibility Wind Speed Wind Dir Waves Ship Positions

Epic Balta

Last reported at 2017-Feb-20 18:17 UTC. Time now 2017-Feb-28 07:47 UTC.
Position N 10°51' W 061°53'.

Length 100 m; draft 5.5 m.

Type: Ship (hazmat cat D). MMSI: 565525000.

Date/timePositionNaut miles runAvg speedWind from/ knotsBaromVisibWave heightAir tempDewpointWater temp
2017-Feb-20 18:17N 10°51' W 061°53'1013.0
2017-Feb-20 17:33N 10°43' W 061°47'1211.9
2017-Feb-20 16:33N 10°33' W 061°42'1212.1
2017-Feb-20 15:33N 10°24' W 061°33'2 1.8
2017-Feb-20 14:27N 10°22' W 061°33'4 3.8
2017-Feb-20 13:29N 10°23' W 061°29'0 0.0
2017-Feb-20 12:29N 10°23' W 061°29'0 0.0
2017-Feb-19 20:33N 10°23' W 061°29'3 3.2
2017-Feb-19 19:33N 10°23' W 061°32'8 7.8
2017-Feb-19 18:33N 10°28' W 061°38'1211.8
2017-Feb-19 17:33N 10°37' W 061°46'1110.9
2017-Feb-19 16:34N 10°47' W 061°50'1311.2
2017-Feb-19 15:27N 10°56' W 061°58'  
Track history (hours):
 
Tides and Currents Weather Stations Pressure Air Temp Water Temp Dewpoint Dewpoint Depression Visibility Wind Speed Wind Dir Waves Ship Positions

Epic Balta

Last reported at 2017-Feb-20 18:17 UTC. Time now 2017-Feb-28 07:47 UTC.
Position N 10°51' W 061°53'.

Length 100 m; draft 5.5 m.

Type: Ship (hazmat cat D). MMSI: 565525000.

Date/timePositionNaut miles runAvg speedWind from/ knotsBaromVisibWave heightAir tempDewpointWater temp
2017-Feb-20 18:17N 10°51' W 061°53'1013.0
2017-Feb-20 17:33N 10°43' W 061°47'1211.9
2017-Feb-20 16:33N 10°33' W 061°42'1212.1
2017-Feb-20 15:33N 10°24' W 061°33'2 1.8
2017-Feb-20 14:27N 10°22' W 061°33'4 3.8
2017-Feb-20 13:29N 10°23' W 061°29'0 0.0
2017-Feb-20 12:29N 10°23' W 061°29'0 0.0
2017-Feb-19 20:33N 10°23' W 061°29'3 3.2
2017-Feb-19 19:33N 10°23' W 061°32'8 7.8
2017-Feb-19 18:33N 10°28' W 061°38'1211.8
2017-Feb-19 17:33N 10°37' W 061°46'1110.9
2017-Feb-19 16:34N 10°47' W 061°50'1311.2
2017-Feb-19 15:27N 10°56' W 061°58'  

Dump ship's entire track history